sensor_id;sensor_type;location;lat;lon;timestamp;P1;durP1;ratioP1;P2;durP2;ratioP2
45650;SDS011;31365;48.858;8.530;2022-10-15T00:01:41;0.60;;;0.57;;
45650;SDS011;31365;48.858;8.530;2022-10-15T00:04:10;4.10;;;0.87;;
45650;SDS011;31365;48.858;8.530;2022-10-15T00:06:38;0.50;;;0.50;;
45650;SDS011;31365;48.858;8.530;2022-10-15T00:09:07;0.70;;;0.43;;
45650;SDS011;31365;48.858;8.530;2022-10-15T00:11:37;0.87;;;0.47;;
45650;SDS011;31365;48.858;8.530;2022-10-15T00:14:06;0.40;;;0.20;;
45650;SDS011;31365;48.858;8.530;2022-10-15T00:16:34;0.17;;;0.10;;
45650;SDS011;31365;48.858;8.530;2022-10-15T00:19:02;0.30;;;0.10;;
45650;SDS011;31365;48.858;8.530;2022-10-15T00:21:31;0.30;;;0.30;;
45650;SDS011;31365;48.858;8.530;2022-10-15T00:23:59;2.17;;;0.30;;
45650;SDS011;31365;48.858;8.530;2022-10-15T00:26:28;0.20;;;0.20;;
45650;SDS011;31365;48.858;8.530;2022-10-15T00:28:58;0.37;;;0.37;;
45650;SDS011;31365;48.858;8.530;2022-10-15T00:31:29;0.60;;;0.10;;
45650;SDS011;31365;48.858;8.530;2022-10-15T00:33:59;0.20;;;0.20;;
45650;SDS011;31365;48.858;8.530;2022-10-15T00:36:30;0.47;;;0.37;;
45650;SDS011;31365;48.858;8.530;2022-10-15T00:39:02;0.30;;;0.10;;
45650;SDS011;31365;48.858;8.530;2022-10-15T00:41:33;0.00;;;0.00;;
45650;SDS011;31365;48.858;8.530;2022-10-15T00:47:17;0.10;;;0.00;;
45650;SDS011;31365;48.858;8.530;2022-10-15T00:49:54;0.10;;;0.10;;
45650;SDS011;31365;48.858;8.530;2022-10-15T00:52:36;0.30;;;0.20;;
45650;SDS011;31365;48.858;8.530;2022-10-15T00:55:11;0.00;;;0.00;;
45650;SDS011;31365;48.858;8.530;2022-10-15T00:57:46;1.07;;;0.00;;
45650;SDS011;31365;48.858;8.530;2022-10-15T01:00:19;0.10;;;0.03;;
45650;SDS011;31365;48.858;8.530;2022-10-15T01:02:48;0.20;;;0.10;;
45650;SDS011;31365;48.858;8.530;2022-10-15T01:05:16;0.10;;;0.00;;
45650;SDS011;31365;48.858;8.530;2022-10-15T01:07:47;0.00;;;0.00;;
45650;SDS011;31365;48.858;8.530;2022-10-15T01:10:16;0.10;;;0.10;;
45650;SDS011;31365;48.858;8.530;2022-10-15T01:12:51;0.10;;;0.10;;
45650;SDS011;31365;48.858;8.530;2022-10-15T01:15:32;1.97;;;0.20;;
45650;SDS011;31365;48.858;8.530;2022-10-15T01:18:13;0.37;;;0.17;;
45650;SDS011;31365;48.858;8.530;2022-10-15T01:20:51;0.10;;;0.10;;
45650;SDS011;31365;48.858;8.530;2022-10-15T01:33:07;1.60;;;0.00;;
45650;SDS011;31365;48.858;8.530;2022-10-15T01:35:51;0.63;;;0.10;;
45650;SDS011;31365;48.858;8.530;2022-10-15T01:38:34;0.37;;;0.10;;
45650;SDS011;31365;48.858;8.530;2022-10-15T01:41:17;0.20;;;0.13;;
45650;SDS011;31365;48.858;8.530;2022-10-15T01:43:56;0.63;;;0.07;;
45650;SDS011;31365;48.858;8.530;2022-10-15T01:46:43;1.50;;;0.43;;
45650;SDS011;31365;48.858;8.530;2022-10-15T01:49:21;1.93;;;0.30;;
45650;SDS011;31365;48.858;8.530;2022-10-15T01:51:55;0.47;;;0.10;;
45650;SDS011;31365;48.858;8.530;2022-10-15T01:54:28;0.23;;;0.10;;
45650;SDS011;31365;48.858;8.530;2022-10-15T01:56:58;0.70;;;0.13;;
45650;SDS011;31365;48.858;8.530;2022-10-15T01:59:29;0.40;;;0.10;;
45650;SDS011;31365;48.858;8.530;2022-10-15T02:02:02;0.40;;;0.00;;
45650;SDS011;31365;48.858;8.530;2022-10-15T02:04:30;0.17;;;0.10;;
45650;SDS011;31365;48.858;8.530;2022-10-15T02:07:00;1.60;;;0.10;;
45650;SDS011;31365;48.858;8.530;2022-10-15T02:09:37;1.60;;;0.10;;
45650;SDS011;31365;48.858;8.530;2022-10-15T02:12:24;0.10;;;0.10;;
45650;SDS011;31365;48.858;8.530;2022-10-15T02:15:05;0.10;;;0.10;;
45650;SDS011;31365;48.858;8.530;2022-10-15T02:17:44;0.47;;;0.30;;
45650;SDS011;31365;48.858;8.530;2022-10-15T02:20:27;0.00;;;0.00;;
45650;SDS011;31365;48.858;8.530;2022-10-15T02:23:06;0.20;;;0.20;;
45650;SDS011;31365;48.858;8.530;2022-10-15T02:25:43;0.20;;;0.10;;
45650;SDS011;31365;48.858;8.530;2022-10-15T02:28:14;0.10;;;0.10;;
45650;SDS011;31365;48.858;8.530;2022-10-15T02:30:45;0.73;;;0.33;;
45650;SDS011;31365;48.858;8.530;2022-10-15T02:33:20;0.10;;;0.10;;
45650;SDS011;31365;48.858;8.530;2022-10-15T02:35:52;0.20;;;0.10;;
45650;SDS011;31365;48.858;8.530;2022-10-15T02:38:22;1.33;;;0.13;;
45650;SDS011;31365;48.858;8.530;2022-10-15T02:40:53;1.70;;;0.33;;
45650;SDS011;31365;48.858;8.530;2022-10-15T02:43:22;0.23;;;0.10;;
45650;SDS011;31365;48.858;8.530;2022-10-15T02:45:51;0.90;;;0.07;;
45650;SDS011;31365;48.858;8.530;2022-10-15T02:48:21;0.10;;;0.10;;
45650;SDS011;31365;48.858;8.530;2022-10-15T02:50:50;0.13;;;0.10;;
45650;SDS011;31365;48.858;8.530;2022-10-15T02:53:18;0.00;;;0.00;;
45650;SDS011;31365;48.858;8.530;2022-10-15T02:55:46;0.10;;;0.00;;
45650;SDS011;31365;48.858;8.530;2022-10-15T02:58:16;0.13;;;0.03;;
45650;SDS011;31365;48.858;8.530;2022-10-15T03:00:44;1.43;;;0.20;;
45650;SDS011;31365;48.858;8.530;2022-10-15T03:03:13;0.37;;;0.30;;
45650;SDS011;31365;48.858;8.530;2022-10-15T03:05:44;0.10;;;0.10;;
45650;SDS011;31365;48.858;8.530;2022-10-15T03:08:13;0.43;;;0.10;;
45650;SDS011;31365;48.858;8.530;2022-10-15T03:10:42;0.00;;;0.00;;
45650;SDS011;31365;48.858;8.530;2022-10-15T03:13:12;1.90;;;0.10;;
45650;SDS011;31365;48.858;8.530;2022-10-15T03:15:46;0.17;;;0.17;;
45650;SDS011;31365;48.858;8.530;2022-10-15T03:18:15;0.17;;;0.17;;
45650;SDS011;31365;48.858;8.530;2022-10-15T03:20:47;0.73;;;0.10;;
45650;SDS011;31365;48.858;8.530;2022-10-15T03:23:21;0.10;;;0.00;;
45650;SDS011;31365;48.858;8.530;2022-10-15T03:26:00;0.10;;;0.10;;
45650;SDS011;31365;48.858;8.530;2022-10-15T03:28:28;0.10;;;0.10;;
45650;SDS011;31365;48.858;8.530;2022-10-15T03:30:57;0.13;;;0.10;;
45650;SDS011;31365;48.858;8.530;2022-10-15T03:33:25;0.60;;;0.10;;
45650;SDS011;31365;48.858;8.530;2022-10-15T03:35:55;0.10;;;0.10;;
45650;SDS011;31365;48.858;8.530;2022-10-15T03:38:24;0.83;;;0.20;;
45650;SDS011;31365;48.858;8.530;2022-10-15T03:40:53;0.80;;;0.30;;
45650;SDS011;31365;48.858;8.530;2022-10-15T03:43:29;0.13;;;0.10;;
45650;SDS011;31365;48.858;8.530;2022-10-15T03:46:00;0.10;;;0.10;;
45650;SDS011;31365;48.858;8.530;2022-10-15T03:48:31;0.47;;;0.13;;
45650;SDS011;31365;48.858;8.530;2022-10-15T03:51:01;0.10;;;0.10;;
45650;SDS011;31365;48.858;8.530;2022-10-15T03:53:29;0.30;;;0.30;;
45650;SDS011;31365;48.858;8.530;2022-10-15T03:56:01;0.53;;;0.20;;
45650;SDS011;31365;48.858;8.530;2022-10-15T03:58:32;0.50;;;0.30;;
45650;SDS011;31365;48.858;8.530;2022-10-15T04:01:07;1.07;;;0.10;;
45650;SDS011;31365;48.858;8.530;2022-10-15T04:03:37;0.20;;;0.20;;
45650;SDS011;31365;48.858;8.530;2022-10-15T04:06:08;0.10;;;0.10;;
45650;SDS011;31365;48.858;8.530;2022-10-15T04:08:38;0.20;;;0.20;;
45650;SDS011;31365;48.858;8.530;2022-10-15T04:11:18;0.20;;;0.20;;
45650;SDS011;31365;48.858;8.530;2022-10-15T04:13:57;0.87;;;0.20;;
45650;SDS011;31365;48.858;8.530;2022-10-15T04:16:34;2.00;;;0.32;;
45650;SDS011;31365;48.858;8.530;2022-10-15T04:19:20;0.40;;;0.20;;
45650;SDS011;31365;48.858;8.530;2022-10-15T04:21:59;0.20;;;0.20;;
45650;SDS011;31365;48.858;8.530;2022-10-15T04:24:31;0.47;;;0.43;;
45650;SDS011;31365;48.858;8.530;2022-10-15T04:27:00;3.30;;;0.87;;
45650;SDS011;31365;48.858;8.530;2022-10-15T04:29:29;0.70;;;0.40;;
45650;SDS011;31365;48.858;8.530;2022-10-15T04:32:10;0.30;;;0.30;;
45650;SDS011;31365;48.858;8.530;2022-10-15T04:34:41;1.07;;;0.50;;
45650;SDS011;31365;48.858;8.530;2022-10-15T06:15:03;0.20;;;0.20;;
45650;SDS011;31365;48.858;8.530;2022-10-15T06:17:32;2.27;;;0.53;;
45650;SDS011;31365;48.858;8.530;2022-10-15T06:20:00;0.80;;;0.50;;
45650;SDS011;31365;48.858;8.530;2022-10-15T06:22:29;1.47;;;0.90;;
45650;SDS011;31365;48.858;8.530;2022-10-15T06:24:57;1.37;;;0.60;;
45650;SDS011;31365;48.858;8.530;2022-10-15T06:27:26;1.20;;;0.40;;
45650;SDS011;31365;48.858;8.530;2022-10-15T06:29:54;0.63;;;0.53;;
45650;SDS011;31365;48.858;8.530;2022-10-15T06:32:24;1.93;;;1.17;;
45650;SDS011;31365;48.858;8.530;2022-10-15T06:34:52;0.93;;;0.77;;
45650;SDS011;31365;48.858;8.530;2022-10-15T06:37:20;1.00;;;0.57;;
45650;SDS011;31365;48.858;8.530;2022-10-15T06:39:49;1.80;;;0.60;;
45650;SDS011;31365;48.858;8.530;2022-10-15T06:42:17;1.90;;;0.50;;
45650;SDS011;31365;48.858;8.530;2022-10-15T06:44:46;1.80;;;0.50;;
45650;SDS011;31365;48.858;8.530;2022-10-15T06:47:15;1.03;;;0.70;;
45650;SDS011;31365;48.858;8.530;2022-10-15T06:49:47;0.93;;;0.60;;
45650;SDS011;31365;48.858;8.530;2022-10-15T06:52:15;1.90;;;1.07;;
45650;SDS011;31365;48.858;8.530;2022-10-15T06:54:44;2.67;;;0.60;;
45650;SDS011;31365;48.858;8.530;2022-10-15T06:57:12;0.83;;;0.60;;
45650;SDS011;31365;48.858;8.530;2022-10-15T06:59:40;0.50;;;0.50;;
45650;SDS011;31365;48.858;8.530;2022-10-15T07:02:09;1.70;;;0.70;;
45650;SDS011;31365;48.858;8.530;2022-10-15T07:04:39;0.80;;;0.70;;
45650;SDS011;31365;48.858;8.530;2022-10-15T07:07:08;0.77;;;0.40;;
45650;SDS011;31365;48.858;8.530;2022-10-15T07:09:36;0.70;;;0.47;;
45650;SDS011;31365;48.858;8.530;2022-10-15T07:12:05;1.20;;;0.70;;
45650;SDS011;31365;48.858;8.530;2022-10-15T07:14:33;1.87;;;1.00;;
45650;SDS011;31365;48.858;8.530;2022-10-15T07:17:07;1.70;;;0.70;;
45650;SDS011;31365;48.858;8.530;2022-10-15T07:19:36;0.83;;;0.63;;
45650;SDS011;31365;48.858;8.530;2022-10-15T07:22:04;2.33;;;1.23;;
45650;SDS011;31365;48.858;8.530;2022-10-15T07:24:33;2.07;;;1.30;;
45650;SDS011;31365;48.858;8.530;2022-10-15T07:27:01;2.27;;;1.20;;
45650;SDS011;31365;48.858;8.530;2022-10-15T07:29:42;1.03;;;0.90;;
45650;SDS011;31365;48.858;8.530;2022-10-15T07:32:10;1.43;;;0.63;;
45650;SDS011;31365;48.858;8.530;2022-10-15T07:34:39;1.10;;;0.57;;
45650;SDS011;31365;48.858;8.530;2022-10-15T07:37:07;2.23;;;0.63;;
45650;SDS011;31365;48.858;8.530;2022-10-15T07:39:37;1.40;;;0.60;;
45650;SDS011;31365;48.858;8.530;2022-10-15T07:42:07;1.87;;;0.63;;
45650;SDS011;31365;48.858;8.530;2022-10-15T07:44:35;0.43;;;0.43;;
45650;SDS011;31365;48.858;8.530;2022-10-15T07:47:08;0.40;;;0.30;;
45650;SDS011;31365;48.858;8.530;2022-10-15T07:49:37;0.80;;;0.40;;
45650;SDS011;31365;48.858;8.530;2022-10-15T07:52:05;1.60;;;1.50;;
45650;SDS011;31365;48.858;8.530;2022-10-15T07:54:34;0.70;;;0.60;;
45650;SDS011;31365;48.858;8.530;2022-10-15T07:57:06;2.20;;;1.00;;
45650;SDS011;31365;48.858;8.530;2022-10-15T07:59:34;0.93;;;0.80;;
45650;SDS011;31365;48.858;8.530;2022-10-15T08:02:02;1.50;;;1.40;;
45650;SDS011;31365;48.858;8.530;2022-10-15T08:04:31;0.90;;;0.80;;
45650;SDS011;31365;48.858;8.530;2022-10-15T08:07:00;0.50;;;0.30;;
45650;SDS011;31365;48.858;8.530;2022-10-15T08:09:33;0.10;;;0.10;;
45650;SDS011;31365;48.858;8.530;2022-10-15T08:12:01;0.63;;;0.27;;
45650;SDS011;31365;48.858;8.530;2022-10-15T08:14:33;0.73;;;0.30;;
45650;SDS011;31365;48.858;8.530;2022-10-15T08:17:03;0.10;;;0.10;;
45650;SDS011;31365;48.858;8.530;2022-10-15T08:19:32;1.03;;;0.37;;
45650;SDS011;31365;48.858;8.530;2022-10-15T08:22:01;0.40;;;0.20;;
45650;SDS011;31365;48.858;8.530;2022-10-15T08:24:29;0.40;;;0.10;;
45650;SDS011;31365;48.858;8.530;2022-10-15T08:26:57;0.40;;;0.33;;
45650;SDS011;31365;48.858;8.530;2022-10-15T08:29:26;1.57;;;0.30;;
45650;SDS011;31365;48.858;8.530;2022-10-15T08:31:56;0.70;;;0.13;;
45650;SDS011;31365;48.858;8.530;2022-10-15T08:34:25;0.43;;;0.33;;
45650;SDS011;31365;48.858;8.530;2022-10-15T08:36:53;0.50;;;0.50;;
45650;SDS011;31365;48.858;8.530;2022-10-15T08:39:21;1.37;;;1.20;;
45650;SDS011;31365;48.858;8.530;2022-10-15T08:41:51;0.30;;;0.20;;
45650;SDS011;31365;48.858;8.530;2022-10-15T08:44:24;0.37;;;0.37;;
45650;SDS011;31365;48.858;8.530;2022-10-15T08:46:58;0.10;;;0.10;;
45650;SDS011;31365;48.858;8.530;2022-10-15T08:49:34;0.10;;;0.10;;
45650;SDS011;31365;48.858;8.530;2022-10-15T08:52:20;0.60;;;0.30;;
45650;SDS011;31365;48.858;8.530;2022-10-15T08:55:07;1.80;;;0.40;;
45650;SDS011;31365;48.858;8.530;2022-10-15T08:57:41;0.17;;;0.10;;
45650;SDS011;31365;48.858;8.530;2022-10-15T09:00:17;0.03;;;0.03;;
45650;SDS011;31365;48.858;8.530;2022-10-15T09:02:53;0.40;;;0.30;;
45650;SDS011;31365;48.858;8.530;2022-10-15T09:05:30;0.30;;;0.30;;
45650;SDS011;31365;48.858;8.530;2022-10-15T09:08:13;0.93;;;0.23;;
45650;SDS011;31365;48.858;8.530;2022-10-15T09:10:53;0.63;;;0.63;;
45650;SDS011;31365;48.858;8.530;2022-10-15T09:13:29;0.40;;;0.40;;
45650;SDS011;31365;48.858;8.530;2022-10-15T09:16:09;1.27;;;1.00;;
45650;SDS011;31365;48.858;8.530;2022-10-15T09:18:45;0.50;;;0.37;;
45650;SDS011;31365;48.858;8.530;2022-10-15T09:21:18;0.30;;;0.30;;
45650;SDS011;31365;48.858;8.530;2022-10-15T09:23:50;0.30;;;0.20;;
45650;SDS011;31365;48.858;8.530;2022-10-15T09:26:24;0.40;;;0.30;;
45650;SDS011;31365;48.858;8.530;2022-10-15T09:28:58;0.37;;;0.20;;
45650;SDS011;31365;48.858;8.530;2022-10-15T09:31:35;0.83;;;0.37;;
45650;SDS011;31365;48.858;8.530;2022-10-15T09:34:15;2.33;;;0.80;;
45650;SDS011;31365;48.858;8.530;2022-10-15T09:36:53;0.40;;;0.40;;
45650;SDS011;31365;48.858;8.530;2022-10-15T09:39:37;0.40;;;0.40;;
45650;SDS011;31365;48.858;8.530;2022-10-15T09:42:23;1.80;;;0.20;;
45650;SDS011;31365;48.858;8.530;2022-10-15T09:44:56;1.63;;;0.20;;
45650;SDS011;31365;48.858;8.530;2022-10-15T09:47:29;1.42;;;0.30;;
45650;SDS011;31365;48.858;8.530;2022-10-15T09:50:02;0.10;;;0.10;;
45650;SDS011;31365;48.858;8.530;2022-10-15T09:52:42;1.27;;;0.30;;
45650;SDS011;31365;48.858;8.530;2022-10-15T09:55:30;0.40;;;0.40;;
45650;SDS011;31365;48.858;8.530;2022-10-15T09:58:11;0.37;;;0.17;;
45650;SDS011;31365;48.858;8.530;2022-10-15T10:00:55;1.17;;;0.43;;
45650;SDS011;31365;48.858;8.530;2022-10-15T10:03:33;1.40;;;0.23;;
45650;SDS011;31365;48.858;8.530;2022-10-15T10:06:05;1.93;;;1.83;;
45650;SDS011;31365;48.858;8.530;2022-10-15T10:08:40;1.20;;;0.93;;
45650;SDS011;31365;48.858;8.530;2022-10-15T10:11:19;1.73;;;0.57;;
45650;SDS011;31365;48.858;8.530;2022-10-15T10:13:50;0.52;;;0.38;;
45650;SDS011;31365;48.858;8.530;2022-10-15T10:16:23;0.75;;;0.20;;
45650;SDS011;31365;48.858;8.530;2022-10-15T10:19:03;0.40;;;0.38;;
45650;SDS011;31365;48.858;8.530;2022-10-15T10:21:40;1.17;;;0.50;;
45650;SDS011;31365;48.858;8.530;2022-10-15T10:24:17;0.60;;;0.50;;
45650;SDS011;31365;48.858;8.530;2022-10-15T10:26:56;0.17;;;0.17;;
45650;SDS011;31365;48.858;8.530;2022-10-15T10:29:25;1.42;;;0.40;;
45650;SDS011;31365;48.858;8.530;2022-10-15T10:32:08;2.60;;;0.45;;
45650;SDS011;31365;48.858;8.530;2022-10-15T10:34:43;0.30;;;0.30;;
45650;SDS011;31365;48.858;8.530;2022-10-15T10:37:19;1.33;;;0.50;;
45650;SDS011;31365;48.858;8.530;2022-10-15T10:39:52;0.68;;;0.50;;
45650;SDS011;31365;48.858;8.530;2022-10-15T10:42:33;1.33;;;0.57;;
45650;SDS011;31365;48.858;8.530;2022-10-15T10:45:06;2.55;;;0.98;;
45650;SDS011;31365;48.858;8.530;2022-10-15T10:47:48;0.80;;;0.47;;
45650;SDS011;31365;48.858;8.530;2022-10-15T10:50:25;0.90;;;0.45;;
45650;SDS011;31365;48.858;8.530;2022-10-15T10:53:10;2.10;;;0.57;;
45650;SDS011;31365;48.858;8.530;2022-10-15T10:55:50;0.73;;;0.60;;
45650;SDS011;31365;48.858;8.530;2022-10-15T10:58:23;1.63;;;0.67;;
45650;SDS011;31365;48.858;8.530;2022-10-15T11:00:58;1.05;;;0.50;;
45650;SDS011;31365;48.858;8.530;2022-10-15T11:03:29;3.33;;;1.00;;
45650;SDS011;31365;48.858;8.530;2022-10-15T11:06:15;1.90;;;1.27;;
45650;SDS011;31365;48.858;8.530;2022-10-15T11:09:16;2.22;;;1.27;;
45650;SDS011;31365;48.858;8.530;2022-10-15T11:12:05;0.98;;;0.80;;
45650;SDS011;31365;48.858;8.530;2022-10-15T11:14:53;1.80;;;0.93;;
45650;SDS011;31365;48.858;8.530;2022-10-15T11:17:33;4.53;;;1.10;;
45650;SDS011;31365;48.858;8.530;2022-10-15T11:20:13;1.85;;;0.57;;
45650;SDS011;31365;48.858;8.530;2022-10-15T11:23:13;1.10;;;0.65;;
45650;SDS011;31365;48.858;8.530;2022-10-15T11:26:02;0.32;;;0.30;;
45650;SDS011;31365;48.858;8.530;2022-10-15T11:28:54;0.88;;;0.40;;
45650;SDS011;31365;48.858;8.530;2022-10-15T11:31:38;1.52;;;0.57;;
45650;SDS011;31365;48.858;8.530;2022-10-15T11:34:30;1.15;;;0.70;;
45650;SDS011;31365;48.858;8.530;2022-10-15T11:37:22;3.08;;;1.52;;
45650;SDS011;31365;48.858;8.530;2022-10-15T11:40:13;2.22;;;1.63;;
45650;SDS011;31365;48.858;8.530;2022-10-15T11:42:59;0.50;;;0.50;;
45650;SDS011;31365;48.858;8.530;2022-10-15T11:45:39;1.33;;;0.75;;
45650;SDS011;31365;48.858;8.530;2022-10-15T11:48:39;1.30;;;0.73;;
45650;SDS011;31365;48.858;8.530;2022-10-15T11:51:28;1.70;;;0.93;;
45650;SDS011;31365;48.858;8.530;2022-10-15T11:54:13;1.02;;;0.65;;
45650;SDS011;31365;48.858;8.530;2022-10-15T11:56:52;4.40;;;0.98;;
45650;SDS011;31365;48.858;8.530;2022-10-15T11:59:34;4.32;;;0.90;;
45650;SDS011;31365;48.858;8.530;2022-10-15T12:02:11;0.40;;;0.40;;
45650;SDS011;31365;48.858;8.530;2022-10-15T12:04:47;2.15;;;0.77;;
45650;SDS011;31365;48.858;8.530;2022-10-15T12:07:21;1.20;;;1.05;;
45650;SDS011;31365;48.858;8.530;2022-10-15T12:09:56;0.60;;;0.60;;
45650;SDS011;31365;48.858;8.530;2022-10-15T12:12:36;0.57;;;0.43;;
45650;SDS011;31365;48.858;8.530;2022-10-15T12:15:18;2.33;;;0.50;;
45650;SDS011;31365;48.858;8.530;2022-10-15T12:17:59;1.08;;;0.40;;
45650;SDS011;31365;48.858;8.530;2022-10-15T12:20:42;1.33;;;0.45;;
45650;SDS011;31365;48.858;8.530;2022-10-15T12:23:21;0.50;;;0.40;;
45650;SDS011;31365;48.858;8.530;2022-10-15T12:25:52;0.55;;;0.35;;
45650;SDS011;31365;48.858;8.530;2022-10-15T12:28:22;0.50;;;0.30;;
45650;SDS011;31365;48.858;8.530;2022-10-15T12:30:57;0.40;;;0.40;;
45650;SDS011;31365;48.858;8.530;2022-10-15T12:33:30;0.73;;;0.40;;
45650;SDS011;31365;48.858;8.530;2022-10-15T12:36:04;0.65;;;0.32;;
45650;SDS011;31365;48.858;8.530;2022-10-15T12:38:50;0.25;;;0.25;;
45650;SDS011;31365;48.858;8.530;2022-10-15T12:41:36;1.95;;;0.60;;
45650;SDS011;31365;48.858;8.530;2022-10-15T12:44:16;0.50;;;0.40;;
45650;SDS011;31365;48.858;8.530;2022-10-15T12:46:57;0.60;;;0.60;;
45650;SDS011;31365;48.858;8.530;2022-10-15T12:49:45;1.00;;;0.60;;
45650;SDS011;31365;48.858;8.530;2022-10-15T12:55:23;1.05;;;0.80;;
45650;SDS011;31365;48.858;8.530;2022-10-15T12:57:59;0.52;;;0.52;;
45650;SDS011;31365;48.858;8.530;2022-10-15T13:00:38;4.82;;;3.15;;
45650;SDS011;31365;48.858;8.530;2022-10-15T13:06:24;1.48;;;0.47;;
45650;SDS011;31365;48.858;8.530;2022-10-15T13:09:05;0.35;;;0.20;;
45650;SDS011;31365;48.858;8.530;2022-10-15T13:11:54;1.58;;;0.50;;
45650;SDS011;31365;48.858;8.530;2022-10-15T13:14:28;0.60;;;0.40;;
45650;SDS011;31365;48.858;8.530;2022-10-15T13:17:02;4.07;;;1.42;;
45650;SDS011;31365;48.858;8.530;2022-10-15T13:19:46;3.63;;;0.80;;
45650;SDS011;31365;48.858;8.530;2022-10-15T13:22:24;6.78;;;0.85;;
45650;SDS011;31365;48.858;8.530;2022-10-15T13:24:55;1.73;;;0.85;;
45650;SDS011;31365;48.858;8.530;2022-10-15T13:27:24;1.85;;;0.45;;
45650;SDS011;31365;48.858;8.530;2022-10-15T13:29:58;0.52;;;0.52;;
45650;SDS011;31365;48.858;8.530;2022-10-15T13:32:29;1.80;;;0.55;;
45650;SDS011;31365;48.858;8.530;2022-10-15T13:35:11;0.40;;;0.40;;
45650;SDS011;31365;48.858;8.530;2022-10-15T13:37:46;1.38;;;0.50;;
45650;SDS011;31365;48.858;8.530;2022-10-15T13:40:17;1.13;;;0.40;;
45650;SDS011;31365;48.858;8.530;2022-10-15T13:42:57;0.60;;;0.60;;
45650;SDS011;31365;48.858;8.530;2022-10-15T13:45:27;1.23;;;0.63;;
45650;SDS011;31365;48.858;8.530;2022-10-15T13:47:56;0.60;;;0.60;;
45650;SDS011;31365;48.858;8.530;2022-10-15T13:50:27;0.65;;;0.65;;
45650;SDS011;31365;48.858;8.530;2022-10-15T13:53:00;0.93;;;0.75;;
45650;SDS011;31365;48.858;8.530;2022-10-15T13:55:43;0.30;;;0.30;;
45650;SDS011;31365;48.858;8.530;2022-10-15T13:58:16;0.25;;;0.25;;
45650;SDS011;31365;48.858;8.530;2022-10-15T14:00:54;0.82;;;0.50;;
45650;SDS011;31365;48.858;8.530;2022-10-15T14:03:26;0.60;;;0.60;;
45650;SDS011;31365;48.858;8.530;2022-10-15T14:06:07;1.25;;;0.45;;
45650;SDS011;31365;48.858;8.530;2022-10-15T14:08:43;1.58;;;1.48;;
45650;SDS011;31365;48.858;8.530;2022-10-15T14:11:14;1.98;;;1.10;;
45650;SDS011;31365;48.858;8.530;2022-10-15T14:13:43;0.95;;;0.70;;
45650;SDS011;31365;48.858;8.530;2022-10-15T14:16:14;1.38;;;1.27;;
45650;SDS011;31365;48.858;8.530;2022-10-15T14:18:48;0.85;;;0.43;;
45650;SDS011;31365;48.858;8.530;2022-10-15T14:21:23;0.60;;;0.50;;
45650;SDS011;31365;48.858;8.530;2022-10-15T14:24:01;0.70;;;0.45;;
45650;SDS011;31365;48.858;8.530;2022-10-15T14:26:33;2.17;;;1.13;;
45650;SDS011;31365;48.858;8.530;2022-10-15T14:29:01;1.05;;;0.90;;
45650;SDS011;31365;48.858;8.530;2022-10-15T14:31:32;1.70;;;0.88;;
45650;SDS011;31365;48.858;8.530;2022-10-15T14:36:58;1.23;;;0.90;;
45650;SDS011;31365;48.858;8.530;2022-10-15T14:39:29;1.42;;;1.15;;
45650;SDS011;31365;48.858;8.530;2022-10-15T14:42:00;2.40;;;1.70;;
45650;SDS011;31365;48.858;8.530;2022-10-15T14:44:40;1.75;;;1.58;;
45650;SDS011;31365;48.858;8.530;2022-10-15T14:47:14;3.25;;;1.52;;
45650;SDS011;31365;48.858;8.530;2022-10-15T14:49:49;2.15;;;1.75;;
45650;SDS011;31365;48.858;8.530;2022-10-15T14:52:24;4.18;;;2.85;;
45650;SDS011;31365;48.858;8.530;2022-10-15T14:54:58;3.25;;;1.52;;
45650;SDS011;31365;48.858;8.530;2022-10-15T14:57:37;3.60;;;3.10;;
45650;SDS011;31365;48.858;8.530;2022-10-15T15:00:10;5.40;;;4.90;;
45650;SDS011;31365;48.858;8.530;2022-10-15T15:02:47;0.85;;;0.77;;
45650;SDS011;31365;48.858;8.530;2022-10-15T15:05:18;4.85;;;4.30;;
45650;SDS011;31365;48.858;8.530;2022-10-15T15:07:51;10.45;;;8.15;;
45650;SDS011;31365;48.858;8.530;2022-10-15T15:10:22;5.22;;;4.45;;
45650;SDS011;31365;48.858;8.530;2022-10-15T15:12:53;6.13;;;5.18;;
45650;SDS011;31365;48.858;8.530;2022-10-15T15:15:23;2.97;;;2.28;;
45650;SDS011;31365;48.858;8.530;2022-10-15T15:17:52;16.95;;;12.35;;
45650;SDS011;31365;48.858;8.530;2022-10-15T15:20:21;10.35;;;8.38;;
45650;SDS011;31365;48.858;8.530;2022-10-15T15:22:53;2.45;;;1.50;;
45650;SDS011;31365;48.858;8.530;2022-10-15T15:25:23;1.10;;;0.90;;
45650;SDS011;31365;48.858;8.530;2022-10-15T15:27:57;1.63;;;0.60;;
45650;SDS011;31365;48.858;8.530;2022-10-15T15:30:26;0.57;;;0.50;;
45650;SDS011;31365;48.858;8.530;2022-10-15T15:32:58;1.00;;;0.93;;
45650;SDS011;31365;48.858;8.530;2022-10-15T15:35:29;1.63;;;1.20;;
45650;SDS011;31365;48.858;8.530;2022-10-15T15:38:07;2.45;;;1.60;;
45650;SDS011;31365;48.858;8.530;2022-10-15T15:40:35;7.75;;;6.50;;
45650;SDS011;31365;48.858;8.530;2022-10-15T15:43:04;10.13;;;7.97;;
45650;SDS011;31365;48.858;8.530;2022-10-15T15:45:32;5.40;;;4.90;;
45650;SDS011;31365;48.858;8.530;2022-10-15T15:48:00;2.30;;;2.10;;
45650;SDS011;31365;48.858;8.530;2022-10-15T15:50:29;2.22;;;1.35;;
45650;SDS011;31365;48.858;8.530;2022-10-15T15:52:58;0.77;;;0.77;;
45650;SDS011;31365;48.858;8.530;2022-10-15T15:55:27;1.75;;;0.70;;
45650;SDS011;31365;48.858;8.530;2022-10-15T15:57:56;1.77;;;0.80;;
45650;SDS011;31365;48.858;8.530;2022-10-15T16:00:25;1.70;;;1.08;;
45650;SDS011;31365;48.858;8.530;2022-10-15T16:11:44;2.88;;;1.45;;
45650;SDS011;31365;48.858;8.530;2022-10-15T16:14:12;1.70;;;1.60;;
45650;SDS011;31365;48.858;8.530;2022-10-15T16:16:41;2.45;;;1.67;;
45650;SDS011;31365;48.858;8.530;2022-10-15T16:19:12;0.85;;;0.77;;
45650;SDS011;31365;48.858;8.530;2022-10-15T16:21:40;1.92;;;1.83;;
45650;SDS011;31365;48.858;8.530;2022-10-15T16:24:08;1.50;;;1.35;;
45650;SDS011;31365;48.858;8.530;2022-10-15T16:26:37;1.80;;;1.70;;
45650;SDS011;31365;48.858;8.530;2022-10-15T16:29:06;3.08;;;2.58;;
45650;SDS011;31365;48.858;8.530;2022-10-15T16:31:34;2.37;;;2.17;;
45650;SDS011;31365;48.858;8.530;2022-10-15T16:34:03;1.43;;;1.30;;
45650;SDS011;31365;48.858;8.530;2022-10-15T16:36:32;1.23;;;1.10;;
45650;SDS011;31365;48.858;8.530;2022-10-15T16:39:02;1.93;;;1.80;;
45650;SDS011;31365;48.858;8.530;2022-10-15T16:41:31;0.87;;;0.80;;
45650;SDS011;31365;48.858;8.530;2022-10-15T16:43:59;2.17;;;1.30;;
45650;SDS011;31365;48.858;8.530;2022-10-15T16:46:29;1.42;;;1.20;;
45650;SDS011;31365;48.858;8.530;2022-10-15T16:48:58;4.00;;;1.83;;
45650;SDS011;31365;48.858;8.530;2022-10-15T16:51:26;0.90;;;0.90;;
45650;SDS011;31365;48.858;8.530;2022-10-15T16:53:57;0.90;;;0.90;;
45650;SDS011;31365;48.858;8.530;2022-10-15T16:56:27;0.87;;;0.87;;
45650;SDS011;31365;48.858;8.530;2022-10-15T16:59:03;0.64;;;0.64;;
45650;SDS011;31365;48.858;8.530;2022-10-15T17:01:32;1.60;;;0.87;;
45650;SDS011;31365;48.858;8.530;2022-10-15T17:04:01;1.17;;;1.07;;
45650;SDS011;31365;48.858;8.530;2022-10-15T17:06:29;0.90;;;0.90;;
45650;SDS011;31365;48.858;8.530;2022-10-15T17:08:59;1.80;;;0.67;;
45650;SDS011;31365;48.858;8.530;2022-10-15T17:11:29;1.47;;;1.30;;
45650;SDS011;31365;48.858;8.530;2022-10-15T17:14:02;0.77;;;0.77;;
45650;SDS011;31365;48.858;8.530;2022-10-15T17:16:35;0.83;;;0.80;;
45650;SDS011;31365;48.858;8.530;2022-10-15T17:19:05;0.73;;;0.60;;
45650;SDS011;31365;48.858;8.530;2022-10-15T17:21:35;0.70;;;0.70;;
45650;SDS011;31365;48.858;8.530;2022-10-15T17:24:10;0.70;;;0.60;;
45650;SDS011;31365;48.858;8.530;2022-10-15T17:26:41;0.43;;;0.43;;
45650;SDS011;31365;48.858;8.530;2022-10-15T17:29:12;0.70;;;0.70;;
45650;SDS011;31365;48.858;8.530;2022-10-15T17:31:47;1.30;;;1.10;;
45650;SDS011;31365;48.858;8.530;2022-10-15T17:34:17;0.83;;;0.80;;
45650;SDS011;31365;48.858;8.530;2022-10-15T17:36:47;1.57;;;1.00;;